createdAt,value
2022-08-18T00:01:14.713Z,45.22
2022-08-18T00:03:55.529Z,46.30
2022-08-18T00:06:24.329Z,46.30
2022-08-18T00:08:55.514Z,46.40
2022-08-18T00:11:23.617Z,44.90
2022-08-18T00:13:50.495Z,43.60
2022-08-18T00:16:17.415Z,44.47
2022-08-18T00:18:44.264Z,45.67
2022-08-18T00:21:11.182Z,48.25
2022-08-18T00:23:38.668Z,46.38
2022-08-18T00:26:05.742Z,46.42
2022-08-18T00:28:32.581Z,45.35
2022-08-18T00:30:59.383Z,45.65
2022-08-18T00:33:26.347Z,44.22
2022-08-18T00:35:53.391Z,45.35
2022-08-18T00:38:23.557Z,44.63
2022-08-18T00:40:54.005Z,44.40
2022-08-18T00:43:35.918Z,45.55
2022-08-18T00:46:02.762Z,47.80
2022-08-18T00:48:30.598Z,49.72
2022-08-18T00:51:06.808Z,47.67
2022-08-18T00:53:36.268Z,47.15
2022-08-18T00:56:22.303Z,46.78
2022-08-18T00:58:55.588Z,50.90
2022-08-18T01:01:24.844Z,49.47
2022-08-18T01:03:58.667Z,54.13
2022-08-18T01:06:40.328Z,52.00
2022-08-18T01:09:08.532Z,52.50
2022-08-18T01:11:38.126Z,54.95
2022-08-18T01:14:10.105Z,52.95
2022-08-18T01:16:57.350Z,52.75
2022-08-18T01:19:58.397Z,55.00
2022-08-18T01:22:36.520Z,55.55
2022-08-18T01:25:26.340Z,52.08
2022-08-18T01:27:57.038Z,53.00
2022-08-18T01:30:28.028Z,59.95
2022-08-18T01:32:54.890Z,59.13
2022-08-18T01:35:25.574Z,64.82
2022-08-18T01:41:06.262Z,60.40
2022-08-18T01:43:11.767Z,64.95
2022-08-18T01:45:38.982Z,61.25
2022-08-18T01:48:05.942Z,65.25
2022-08-18T01:50:34.745Z,67.50
2022-08-18T01:53:05.444Z,66.13
2022-08-18T01:58:01.440Z,63.97
2022-08-18T02:00:29.487Z,70.05
2022-08-18T02:03:02.170Z,70.28
2022-08-18T02:05:40.841Z,69.47
2022-08-18T02:08:09.459Z,68.93
2022-08-18T02:10:36.871Z,65.90
2022-08-18T02:13:03.876Z,68.05
2022-08-18T02:15:31.129Z,66.63
2022-08-18T02:17:57.946Z,64.45
2022-08-18T02:20:25.294Z,66.10
2022-08-18T02:22:52.510Z,66.22
2022-08-18T02:25:19.769Z,68.15
2022-08-18T02:27:46.982Z,72.75
2022-08-18T02:30:16.899Z,70.28
2022-08-18T02:32:43.847Z,74.07
2022-08-18T02:35:12.110Z,74.10
2022-08-18T02:37:42.274Z,72.78
2022-08-18T02:40:11.241Z,76.22
2022-08-18T02:42:42.381Z,74.95
2022-08-18T02:45:09.680Z,73.50
2022-08-18T02:47:36.729Z,73.28
2022-08-18T02:50:04.069Z,71.35
2022-08-18T02:52:32.716Z,73.30
2022-08-18T02:55:03.668Z,70.20
2022-08-18T02:57:31.284Z,70.57
2022-08-18T02:59:59.887Z,70.45
2022-08-18T03:02:26.816Z,67.15
2022-08-18T03:04:53.584Z,73.47
2022-08-18T03:07:20.422Z,67.90
2022-08-18T03:09:47.235Z,68.68
2022-08-18T03:12:14.054Z,66.88
2022-08-18T03:14:40.875Z,69.30
2022-08-18T03:17:09.669Z,71.88
2022-08-18T03:19:36.607Z,70.05
2022-08-18T03:22:04.458Z,72.43
2022-08-18T03:24:51.162Z,69.40
2022-08-18T03:27:18.053Z,71.10
2022-08-18T03:29:44.786Z,69.72
2022-08-18T03:32:11.726Z,68.45
2022-08-18T03:34:38.855Z,70.07
2022-08-18T03:37:05.710Z,67.55
2022-08-18T03:39:32.607Z,67.10
2022-08-18T03:42:01.577Z,73.70
2022-08-18T03:44:38.186Z,67.80
2022-08-18T03:47:09.082Z,75.20
2022-08-18T03:49:36.595Z,75.47
2022-08-18T03:52:07.232Z,72.90
2022-08-18T03:54:34.012Z,71.13
2022-08-18T03:57:00.833Z,73.93
2022-08-18T03:59:30.643Z,75.15
2022-08-18T04:01:57.863Z,77.27
2022-08-18T04:04:27.370Z,69.80
2022-08-18T04:07:05.946Z,73.05
2022-08-18T04:09:34.287Z,74.93
2022-08-18T04:12:15.510Z,79.60
2022-08-18T04:14:48.186Z,77.85
2022-08-18T04:17:24.238Z,76.80
2022-08-18T04:19:56.001Z,79.50
2022-08-18T04:22:24.901Z,77.35
2022-08-18T04:24:52.471Z,81.65
2022-08-18T04:27:21.433Z,82.32
2022-08-18T04:29:49.023Z,82.05
2022-08-18T04:32:16.008Z,81.65
2022-08-18T04:34:42.839Z,82.28
2022-08-18T04:37:10.003Z,80.82
2022-08-18T04:39:37.905Z,79.55
2022-08-18T04:42:05.841Z,78.53
2022-08-18T04:44:32.770Z,77.05
2022-08-18T04:47:01.422Z,79.15
2022-08-18T04:49:28.270Z,75.95
2022-08-18T04:52:30.811Z,78.72
2022-08-18T04:55:02.074Z,74.78
2022-08-18T04:57:29.341Z,80.70
2022-08-18T05:00:00.758Z,76.75
2022-08-18T05:02:28.178Z,80.18
2022-08-18T05:04:55.022Z,75.28
2022-08-18T05:07:25.570Z,72.20
2022-08-18T05:09:54.044Z,72.82
2022-08-18T05:12:22.771Z,75.72
2022-08-18T05:14:53.954Z,74.32
2022-08-18T05:17:20.959Z,75.00
2022-08-18T05:19:48.549Z,75.07
2022-08-18T05:22:19.608Z,70.63
2022-08-18T05:24:55.785Z,69.78
2022-08-18T05:27:22.551Z,67.05
2022-08-18T05:29:51.694Z,68.10
2022-08-18T05:32:46.520Z,64.57
2022-08-18T05:35:12.150Z,66.13
2022-08-18T05:38:11.292Z,63.97
2022-08-18T05:40:38.211Z,65.63
2022-08-18T05:43:06.890Z,63.38
2022-08-18T05:45:34.870Z,63.13
2022-08-18T05:48:01.981Z,62.20
2022-08-18T05:50:32.320Z,63.78
2022-08-18T05:53:07.445Z,65.82
2022-08-18T05:56:18.799Z,67.32
2022-08-18T05:58:55.569Z,67.93
2022-08-18T06:01:39.551Z,67.68
2022-08-18T06:04:12.306Z,70.82
2022-08-18T06:06:43.009Z,69.35
2022-08-18T06:09:33.276Z,69.10
2022-08-18T06:12:49.216Z,66.40
2022-08-18T06:15:45.307Z,65.80
2022-08-18T06:18:49.247Z,66.13
2022-08-18T06:21:19.882Z,65.97
2022-08-18T06:26:46.032Z,63.45
2022-08-18T06:29:31.398Z,62.33
2022-08-18T06:32:05.346Z,64.32
2022-08-18T06:34:54.609Z,59.08
2022-08-18T06:37:28.408Z,61.30
2022-08-18T06:39:57.258Z,61.00
2022-08-18T06:42:30.506Z,62.40
2022-08-18T06:45:12.785Z,63.50
2022-08-18T06:47:59.943Z,62.05
2022-08-18T06:50:44.083Z,59.25
2022-08-18T06:53:27.325Z,59.15
2022-08-18T06:55:55.529Z,57.25
2022-08-18T06:58:30.327Z,56.63
2022-08-18T07:01:01.422Z,58.00
2022-08-18T07:03:54.825Z,59.25
2022-08-18T07:06:21.760Z,57.75
2022-08-18T07:08:51.249Z,57.75
2022-08-18T07:11:28.904Z,58.05
2022-08-18T07:14:15.565Z,56.25
2022-08-18T07:16:59.835Z,58.50
2022-08-18T07:19:32.028Z,58.53
2022-08-18T07:22:01.933Z,57.88
2022-08-18T07:24:33.524Z,61.37
2022-08-18T07:27:15.401Z,56.20
2022-08-18T07:30:06.060Z,57.15
2022-08-18T07:32:46.224Z,53.83
2022-08-18T07:35:17.549Z,57.17
2022-08-18T07:37:47.044Z,56.58
2022-08-18T07:40:23.340Z,55.67
2022-08-18T07:43:27.566Z,53.58
2022-08-18T07:46:02.987Z,53.00
2022-08-18T07:48:40.805Z,57.75
2022-08-18T07:51:37.217Z,59.72
2022-08-18T07:54:45.352Z,62.55
2022-08-18T07:57:10.476Z,55.53
2022-08-18T07:59:44.535Z,55.70
2022-08-18T08:02:35.963Z,56.05
2022-08-18T08:05:17.442Z,56.63
2022-08-18T08:07:52.055Z,52.65
2022-08-18T08:10:28.605Z,53.70
2022-08-18T08:13:22.282Z,59.92
2022-08-18T08:16:09.406Z,58.45
2022-08-18T08:18:56.471Z,59.17
2022-08-18T08:21:28.820Z,55.63
2022-08-18T08:24:05.855Z,56.00
2022-08-18T08:26:35.637Z,54.03
2022-08-18T08:29:08.535Z,57.60
2022-08-18T08:31:58.724Z,55.58
2022-08-18T08:34:43.020Z,53.80
2022-08-18T08:37:16.659Z,50.88
2022-08-18T08:39:57.814Z,51.95
2022-08-18T08:42:49.246Z,46.90
2022-08-18T08:45:42.606Z,47.47
2022-08-18T08:48:21.088Z,49.38
2022-08-18T08:50:57.732Z,49.55
2022-08-18T08:53:38.385Z,47.67
2022-08-18T08:58:49.452Z,42.40
2022-08-18T09:01:36.104Z,47.20
2022-08-18T09:04:23.635Z,47.40
2022-08-18T09:07:17.985Z,47.05
2022-08-18T09:09:53.857Z,45.70
2022-08-18T09:12:45.464Z,46.10
2022-08-18T09:16:00.569Z,43.78
2022-08-18T09:18:34.208Z,41.45
2022-08-18T09:21:12.902Z,44.97
2022-08-18T09:23:50.948Z,45.58
2022-08-18T09:26:43.010Z,45.50
2022-08-18T09:29:46.770Z,45.28
2022-08-18T09:32:22.976Z,42.10
2022-08-18T09:35:11.853Z,42.20
2022-08-18T09:38:20.367Z,44.08
2022-08-18T09:41:17.267Z,43.65
2022-08-18T09:47:09.204Z,47.10
2022-08-18T09:49:51.044Z,47.00
2022-08-18T09:52:21.365Z,47.80
2022-08-18T09:55:02.268Z,48.38
2022-08-18T09:57:42.416Z,49.20
2022-08-18T10:00:14.235Z,46.75
2022-08-18T10:02:47.631Z,45.58
2022-08-18T10:05:15.710Z,49.40
2022-08-18T10:07:55.962Z,51.00
2022-08-18T10:11:00.827Z,48.13
2022-08-18T10:13:58.959Z,48.60
2022-08-18T10:17:23.566Z,47.97
2022-08-18T10:20:02.507Z,47.63
2022-08-18T10:22:47.453Z,48.08
2022-08-18T10:25:29.996Z,48.47
2022-08-18T10:27:57.141Z,46.80
2022-08-18T10:30:34.479Z,48.53
2022-08-18T10:33:17.732Z,48.13
2022-08-18T10:36:03.239Z,48.22
2022-08-18T10:38:46.180Z,49.33
2022-08-18T10:41:50.596Z,48.40
2022-08-18T10:44:29.374Z,48.33
2022-08-18T10:46:58.848Z,46.42
2022-08-18T10:49:28.719Z,47.53
2022-08-18T10:52:21.572Z,47.35
2022-08-18T10:55:20.733Z,45.75
2022-08-18T10:58:00.439Z,46.90
2022-08-18T11:00:45.152Z,44.03
2022-08-18T11:03:50.528Z,43.90
2022-08-18T11:06:14.590Z,43.13
2022-08-18T11:08:55.130Z,41.53
2022-08-18T11:11:36.985Z,40.67
2022-08-18T11:14:15.877Z,43.10
2022-08-18T11:16:59.497Z,42.50
2022-08-18T11:19:27.744Z,45.67
2022-08-18T11:21:55.092Z,43.30
2022-08-18T11:24:45.147Z,42.22
2022-08-18T11:27:30.938Z,38.67
2022-08-18T11:30:03.834Z,39.72
2022-08-18T11:32:42.667Z,40.05
2022-08-18T11:35:22.084Z,38.28
2022-08-18T11:37:57.736Z,39.00
2022-08-18T11:41:10.488Z,37.97
2022-08-18T11:46:29.311Z,35.78
2022-08-18T11:48:58.586Z,35.38
2022-08-18T11:51:32.977Z,30.35
2022-08-18T11:54:12.749Z,30.20
2022-08-18T11:56:39.664Z,25.48
2022-08-18T11:59:09.314Z,25.27
2022-08-18T12:01:44.692Z,25.85
2022-08-18T12:04:14.839Z,23.33
2022-08-18T12:06:54.462Z,24.50
2022-08-18T12:12:22.828Z,20.73
2022-08-18T12:15:11.799Z,17.40
2022-08-18T12:17:52.712Z,20.25
2022-08-18T12:20:20.855Z,18.30
2022-08-18T12:22:49.756Z,19.70
2022-08-18T12:25:24.805Z,19.80
2022-08-18T12:27:53.501Z,19.25
2022-08-18T12:30:20.746Z,20.95
2022-08-18T12:32:50.668Z,21.73
2022-08-18T12:35:22.715Z,19.40
2022-08-18T12:38:13.192Z,18.48
2022-08-18T12:40:36.768Z,18.33
2022-08-18T12:43:03.817Z,18.55
2022-08-18T12:45:32.919Z,16.40
2022-08-18T12:48:04.292Z,17.70
2022-08-18T12:50:36.284Z,17.23
2022-08-18T12:53:06.636Z,16.98
2022-08-18T12:55:44.048Z,17.98
2022-08-18T12:58:12.426Z,17.75
2022-08-18T13:00:40.803Z,17.60
2022-08-18T13:03:08.426Z,17.55
2022-08-18T13:05:37.347Z,16.67
2022-08-18T13:08:05.736Z,18.42
2022-08-18T13:10:45.030Z,18.55
2022-08-18T13:13:17.992Z,16.67
2022-08-18T13:15:57.889Z,19.52
2022-08-18T13:18:28.660Z,18.60
2022-08-18T13:21:00.228Z,19.17
2022-08-18T13:23:28.334Z,18.27
2022-08-18T13:25:59.442Z,18.88
2022-08-18T13:28:35.874Z,18.48
2022-08-18T13:31:16.683Z,19.30
2022-08-18T13:33:56.686Z,17.30
2022-08-18T13:36:28.865Z,18.10
2022-08-18T13:38:55.886Z,18.30
2022-08-18T13:43:52.359Z,16.63
2022-08-18T13:46:24.196Z,17.38
2022-08-18T13:49:02.397Z,17.30
2022-08-18T13:51:30.277Z,16.88
2022-08-18T13:54:17.843Z,16.13
2022-08-18T13:56:51.570Z,16.13
2022-08-18T13:59:21.744Z,17.52
2022-08-18T14:01:53.042Z,15.77
2022-08-18T14:04:22.783Z,16.50
2022-08-18T14:06:56.943Z,16.73
2022-08-18T14:09:27.968Z,15.35
2022-08-18T14:12:15.939Z,15.82
2022-08-18T14:14:55.084Z,16.48
2022-08-18T14:17:24.326Z,17.00
2022-08-18T14:20:15.302Z,16.55
2022-08-18T14:23:09.925Z,15.70
2022-08-18T14:25:55.706Z,15.25
2022-08-18T14:28:24.740Z,15.35
2022-08-18T14:30:54.564Z,14.23
2022-08-18T14:33:34.160Z,13.87
2022-08-18T14:36:10.459Z,14.15
2022-08-18T14:38:38.303Z,15.35
2022-08-18T14:41:07.950Z,14.88
2022-08-18T14:43:51.738Z,14.02
2022-08-18T14:46:23.502Z,12.90
2022-08-18T14:48:57.257Z,12.48
2022-08-18T14:51:27.333Z,13.10
2022-08-18T14:53:55.217Z,12.07
2022-08-18T14:56:28.389Z,12.18
2022-08-18T14:58:56.413Z,11.85
2022-08-18T15:01:24.651Z,12.38
2022-08-18T15:03:54.421Z,12.20
2022-08-18T15:06:22.906Z,13.10
2022-08-18T15:08:57.155Z,11.98
2022-08-18T15:11:24.923Z,11.48
2022-08-18T15:13:55.089Z,12.80
2022-08-18T15:16:31.643Z,11.88
2022-08-18T15:18:59.498Z,12.05
2022-08-18T15:21:46.668Z,10.65
2022-08-18T15:24:34.232Z,10.48
2022-08-18T15:27:10.513Z,9.55
2022-08-18T15:29:46.407Z,10.15
2022-08-18T15:32:16.938Z,10.50
2022-08-18T15:34:47.330Z,9.27
2022-08-18T15:37:22.159Z,8.73
2022-08-18T15:40:01.091Z,8.60
2022-08-18T15:42:29.773Z,9.20
2022-08-18T15:44:56.772Z,8.27
2022-08-18T15:47:24.971Z,8.50
2022-08-18T15:49:52.152Z,8.30
2022-08-18T15:52:22.598Z,7.68
2022-08-18T15:54:50.512Z,8.65
2022-08-18T15:57:38.965Z,8.95
2022-08-18T16:00:06.026Z,9.77
2022-08-18T16:02:33.696Z,10.27
2022-08-18T16:05:09.181Z,8.95
2022-08-18T16:07:41.409Z,8.85
2022-08-18T16:10:13.385Z,8.02
2022-08-18T16:12:45.612Z,7.75
2022-08-18T16:15:15.667Z,8.73
2022-08-18T16:17:47.776Z,8.55
2022-08-18T16:20:14.970Z,8.63
2022-08-18T16:22:42.204Z,8.48
2022-08-18T16:25:09.572Z,9.10
2022-08-18T16:27:41.132Z,8.45
2022-08-18T16:30:10.516Z,12.65
2022-08-18T16:32:37.489Z,9.60
2022-08-18T16:35:06.015Z,8.27
2022-08-18T16:37:33.032Z,7.78
2022-08-18T16:39:59.875Z,7.80
2022-08-18T16:42:32.561Z,8.07
2022-08-18T16:45:00.645Z,7.75
2022-08-18T16:47:28.068Z,8.07
2022-08-18T16:49:58.610Z,8.15
2022-08-18T16:52:27.115Z,7.70
2022-08-18T16:54:57.644Z,7.60
2022-08-18T16:57:55.185Z,7.90
2022-08-18T17:00:42.484Z,7.30
2022-08-18T17:03:31.520Z,8.20
2022-08-18T17:06:07.953Z,7.93
2022-08-18T17:08:35.444Z,7.47
2022-08-18T17:11:04.471Z,7.43
2022-08-18T17:13:31.477Z,7.88
2022-08-18T17:15:59.763Z,8.18
2022-08-18T17:18:27.321Z,7.88
2022-08-18T17:20:55.386Z,7.50
2022-08-18T17:23:22.969Z,7.80
2022-08-18T17:25:50.765Z,8.02
2022-08-18T17:28:23.068Z,11.05
2022-08-18T17:30:53.313Z,8.45
2022-08-18T17:33:25.659Z,9.05
2022-08-18T17:35:54.109Z,8.35
2022-08-18T17:38:49.331Z,7.80
2022-08-18T17:41:25.298Z,8.32
2022-08-18T17:43:55.859Z,8.23
2022-08-18T17:46:30.312Z,8.40
2022-08-18T17:49:11.947Z,8.27
2022-08-18T17:51:55.271Z,7.93
2022-08-18T17:54:29.783Z,7.85
2022-08-18T17:57:01.830Z,7.72
2022-08-18T17:59:42.793Z,7.60
2022-08-18T18:02:29.547Z,8.15
2022-08-18T18:05:03.558Z,8.75
2022-08-18T18:07:38.663Z,10.98
2022-08-18T18:10:28.341Z,9.45
2022-08-18T18:13:16.193Z,8.63
2022-08-18T18:15:50.717Z,8.90
2022-08-18T18:18:23.750Z,9.27
2022-08-18T18:21:15.550Z,8.27
2022-08-18T18:23:46.241Z,9.27
2022-08-18T18:26:26.262Z,8.45
2022-08-18T18:29:11.294Z,7.43
2022-08-18T18:31:42.012Z,7.93
2022-08-18T18:34:44.976Z,9.73
2022-08-18T18:37:30.088Z,13.40
2022-08-18T18:40:00.261Z,8.95
2022-08-18T18:42:34.010Z,8.95
2022-08-18T18:45:06.374Z,8.88
2022-08-18T18:47:55.905Z,9.52
2022-08-18T18:50:33.283Z,9.00
2022-08-18T18:53:26.648Z,10.35
2022-08-18T18:56:25.368Z,11.48
2022-08-18T18:59:14.247Z,11.18
2022-08-18T19:01:52.777Z,9.77
2022-08-18T19:04:32.180Z,10.05
2022-08-18T19:07:26.362Z,9.10
2022-08-18T19:10:08.829Z,8.73
2022-08-18T19:13:02.560Z,8.65
2022-08-18T19:15:33.371Z,8.45
2022-08-18T19:18:11.864Z,8.45
2022-08-18T19:22:02.029Z,10.15
2022-08-18T19:23:44.469Z,8.60
2022-08-18T19:26:17.398Z,8.85
2022-08-18T19:29:12.067Z,9.00
2022-08-18T19:31:40.888Z,9.98
2022-08-18T19:34:31.141Z,9.90
2022-08-18T19:37:30.961Z,10.50
2022-08-18T19:40:16.630Z,9.10
2022-08-18T19:43:06.311Z,9.57
2022-08-18T19:45:53.196Z,9.45
2022-08-18T19:48:38.156Z,9.50
2022-08-18T19:51:13.261Z,9.63
2022-08-18T19:54:01.234Z,8.60
2022-08-18T19:56:58.375Z,9.00
2022-08-18T19:59:44.154Z,8.93
2022-08-18T20:02:29.102Z,8.20
2022-08-18T20:05:21.188Z,8.88
2022-08-18T20:08:06.013Z,8.00
2022-08-18T20:10:44.979Z,8.32
2022-08-18T20:13:36.228Z,9.13
2022-08-18T20:16:03.689Z,8.82
2022-08-18T20:18:35.755Z,8.20
2022-08-18T20:21:14.728Z,8.27
2022-08-18T20:24:08.754Z,9.07
2022-08-18T20:26:38.199Z,8.60
2022-08-18T20:29:14.832Z,8.63
2022-08-18T20:31:50.789Z,8.38
2022-08-18T20:34:21.001Z,8.40
2022-08-18T20:36:49.667Z,8.55
2022-08-18T20:39:44.674Z,8.20
2022-08-18T20:42:24.499Z,8.18
2022-08-18T20:44:58.520Z,8.30
2022-08-18T20:47:31.153Z,8.32
2022-08-18T20:50:16.735Z,7.38
2022-08-18T20:53:03.247Z,7.97
2022-08-18T20:55:35.168Z,8.40
2022-08-18T20:58:15.624Z,8.57
2022-08-18T21:00:48.554Z,8.27
2022-08-18T21:03:16.734Z,8.38
2022-08-18T21:05:46.128Z,7.93
2022-08-18T21:08:19.869Z,8.25
2022-08-18T21:10:52.782Z,8.80
2022-08-18T21:13:32.907Z,8.50
2022-08-18T21:16:00.282Z,8.45
2022-08-18T21:18:28.500Z,9.00
2022-08-18T21:20:58.134Z,8.75
2022-08-18T21:23:29.417Z,8.55
2022-08-18T21:25:59.845Z,8.38
2022-08-18T21:31:41.560Z,9.13
2022-08-18T21:34:09.808Z,11.50
2022-08-18T21:36:47.776Z,12.13
2022-08-18T21:39:16.872Z,10.52
2022-08-18T21:41:48.849Z,9.25
2022-08-18T21:44:23.921Z,9.40
2022-08-18T21:47:03.115Z,9.50
2022-08-18T21:49:31.823Z,9.35
2022-08-18T21:51:58.679Z,9.13
2022-08-18T21:54:30.183Z,8.93
2022-08-18T21:57:38.927Z,9.23
2022-08-18T22:00:20.563Z,9.35
2022-08-18T22:02:51.088Z,9.38
2022-08-18T22:05:54.994Z,8.85
2022-08-18T22:11:41.843Z,9.38
2022-08-18T22:14:16.756Z,9.32
2022-08-18T22:16:45.526Z,9.00
2022-08-18T22:19:16.013Z,9.00
2022-08-18T22:21:49.865Z,9.25
2022-08-18T22:24:19.752Z,9.25
2022-08-18T22:27:02.254Z,9.77
2022-08-18T22:29:45.461Z,9.50
2022-08-18T22:32:13.652Z,9.50
2022-08-18T22:34:42.234Z,9.45
2022-08-18T22:37:19.519Z,9.82
2022-08-18T22:39:58.206Z,9.38
2022-08-18T22:42:28.141Z,9.52
2022-08-18T22:44:57.132Z,9.63
2022-08-18T22:47:27.134Z,9.57
2022-08-18T22:49:53.966Z,9.70
2022-08-18T22:52:29.913Z,10.50
2022-08-18T22:54:58.647Z,9.38
2022-08-18T22:57:27.781Z,10.20
2022-08-18T22:59:55.406Z,9.20
2022-08-18T23:02:25.182Z,9.70
2022-08-18T23:04:52.022Z,9.77
2022-08-18T23:07:22.909Z,9.82
2022-08-18T23:09:49.733Z,9.73
2022-08-18T23:12:16.590Z,9.88
2022-08-18T23:14:46.471Z,9.57
2022-08-18T23:17:14.158Z,9.85
2022-08-18T23:19:40.985Z,10.15
2022-08-18T23:22:09.009Z,9.77
2022-08-18T23:24:37.297Z,9.90
2022-08-18T23:27:06.147Z,10.35
2022-08-18T23:29:36.847Z,10.45
2022-08-18T23:32:05.845Z,10.80
2022-08-18T23:34:34.592Z,10.85
2022-08-18T23:37:03.124Z,10.45
2022-08-18T23:39:32.400Z,10.02
2022-08-18T23:42:00.563Z,9.80
2022-08-18T23:44:28.355Z,11.40
2022-08-18T23:46:57.819Z,10.82
2022-08-18T23:49:26.233Z,10.10
2022-08-18T23:51:55.981Z,10.60
2022-08-18T23:54:27.028Z,11.17
2022-08-18T23:56:53.848Z,11.20
2022-08-18T23:59:22.493Z,10.95
